sensor_id;sensor_type;location;lat;lon;timestamp;P1;durP1;ratioP1;P2;durP2;ratioP2
32333;SDS011;18810;53.040;8.850;2023-07-13T00:01:35;12.40;;;7.70;;
32333;SDS011;18810;53.040;8.850;2023-07-13T00:04:03;12.20;;;7.72;;
32333;SDS011;18810;53.040;8.850;2023-07-13T00:06:29;10.10;;;7.15;;
32333;SDS011;18810;53.040;8.850;2023-07-13T00:08:58;12.77;;;7.85;;
32333;SDS011;18810;53.040;8.850;2023-07-13T00:11:24;10.13;;;6.78;;
32333;SDS011;18810;53.040;8.850;2023-07-13T00:13:50;12.05;;;7.35;;
32333;SDS011;18810;53.040;8.850;2023-07-13T00:16:16;13.05;;;7.72;;
32333;SDS011;18810;53.040;8.850;2023-07-13T00:18:43;15.35;;;7.80;;
32333;SDS011;18810;53.040;8.850;2023-07-13T00:21:10;11.43;;;7.65;;
32333;SDS011;18810;53.040;8.850;2023-07-13T00:23:37;16.30;;;8.68;;
32333;SDS011;18810;53.040;8.850;2023-07-13T00:26:05;14.35;;;7.00;;
32333;SDS011;18810;53.040;8.850;2023-07-13T00:28:33;10.55;;;7.30;;
32333;SDS011;18810;53.040;8.850;2023-07-13T00:30:59;11.68;;;7.70;;
32333;SDS011;18810;53.040;8.850;2023-07-13T00:33:25;12.55;;;8.13;;
32333;SDS011;18810;53.040;8.850;2023-07-13T00:35:51;9.88;;;7.97;;
32333;SDS011;18810;53.040;8.850;2023-07-13T00:38:18;15.90;;;9.02;;
32333;SDS011;18810;53.040;8.850;2023-07-13T00:40:44;11.48;;;7.65;;
32333;SDS011;18810;53.040;8.850;2023-07-13T00:43:14;11.05;;;7.20;;
32333;SDS011;18810;53.040;8.850;2023-07-13T00:48:32;12.13;;;8.38;;
32333;SDS011;18810;53.040;8.850;2023-07-13T00:51:01;12.65;;;8.63;;
32333;SDS011;18810;53.040;8.850;2023-07-13T00:53:27;15.55;;;8.38;;
32333;SDS011;18810;53.040;8.850;2023-07-13T00:55:55;12.65;;;9.63;;
32333;SDS011;18810;53.040;8.850;2023-07-13T00:58:22;12.60;;;8.93;;
32333;SDS011;18810;53.040;8.850;2023-07-13T01:00:50;15.30;;;9.80;;
32333;SDS011;18810;53.040;8.850;2023-07-13T01:03:16;15.35;;;9.82;;
32333;SDS011;18810;53.040;8.850;2023-07-13T01:05:43;16.90;;;10.00;;
32333;SDS011;18810;53.040;8.850;2023-07-13T01:08:11;12.75;;;8.85;;
32333;SDS011;18810;53.040;8.850;2023-07-13T01:10:37;14.77;;;10.20;;
32333;SDS011;18810;53.040;8.850;2023-07-13T01:13:06;13.55;;;10.27;;
32333;SDS011;18810;53.040;8.850;2023-07-13T01:15:40;12.73;;;10.73;;
32333;SDS011;18810;53.040;8.850;2023-07-13T01:18:17;14.55;;;10.35;;
32333;SDS011;18810;53.040;8.850;2023-07-13T01:20:53;18.08;;;11.45;;
32333;SDS011;18810;53.040;8.850;2023-07-13T01:23:23;18.55;;;10.82;;
32333;SDS011;18810;53.040;8.850;2023-07-13T01:25:50;16.92;;;11.40;;
32333;SDS011;18810;53.040;8.850;2023-07-13T01:28:17;17.17;;;11.65;;
32333;SDS011;18810;53.040;8.850;2023-07-13T01:30:43;16.42;;;11.27;;
32333;SDS011;18810;53.040;8.850;2023-07-13T01:33:11;15.63;;;11.45;;
32333;SDS011;18810;53.040;8.850;2023-07-13T01:35:39;17.52;;;12.05;;
32333;SDS011;18810;53.040;8.850;2023-07-13T01:38:05;16.05;;;12.10;;
32333;SDS011;18810;53.040;8.850;2023-07-13T01:40:31;21.02;;;11.85;;
32333;SDS011;18810;53.040;8.850;2023-07-13T01:42:57;17.58;;;12.75;;
32333;SDS011;18810;53.040;8.850;2023-07-13T01:45:23;19.92;;;12.15;;
32333;SDS011;18810;53.040;8.850;2023-07-13T01:47:49;16.05;;;11.75;;
32333;SDS011;18810;53.040;8.850;2023-07-13T01:50:15;18.20;;;12.70;;
32333;SDS011;18810;53.040;8.850;2023-07-13T01:52:40;20.40;;;12.40;;
32333;SDS011;18810;53.040;8.850;2023-07-13T01:55:06;17.85;;;12.20;;
32333;SDS011;18810;53.040;8.850;2023-07-13T01:57:32;17.33;;;11.65;;
32333;SDS011;18810;53.040;8.850;2023-07-13T01:59:58;16.88;;;12.07;;
32333;SDS011;18810;53.040;8.850;2023-07-13T02:02:24;21.38;;;12.52;;
32333;SDS011;18810;53.040;8.850;2023-07-13T02:04:50;14.98;;;11.10;;
32333;SDS011;18810;53.040;8.850;2023-07-13T02:07:15;16.35;;;11.65;;
32333;SDS011;18810;53.040;8.850;2023-07-13T02:09:41;19.58;;;12.30;;
32333;SDS011;18810;53.040;8.850;2023-07-13T02:12:07;17.27;;;12.50;;
32333;SDS011;18810;53.040;8.850;2023-07-13T02:14:33;21.88;;;12.63;;
32333;SDS011;18810;53.040;8.850;2023-07-13T02:16:59;18.65;;;12.90;;
32333;SDS011;18810;53.040;8.850;2023-07-13T02:19:25;18.10;;;12.05;;
32333;SDS011;18810;53.040;8.850;2023-07-13T02:21:50;19.52;;;12.52;;
32333;SDS011;18810;53.040;8.850;2023-07-13T02:24:16;18.70;;;12.20;;
32333;SDS011;18810;53.040;8.850;2023-07-13T02:26:44;20.52;;;13.45;;
32333;SDS011;18810;53.040;8.850;2023-07-13T02:29:10;22.48;;;13.88;;
32333;SDS011;18810;53.040;8.850;2023-07-13T02:31:35;25.05;;;13.30;;
32333;SDS011;18810;53.040;8.850;2023-07-13T02:34:01;22.70;;;13.05;;
32333;SDS011;18810;53.040;8.850;2023-07-13T02:36:28;19.15;;;12.68;;
32333;SDS011;18810;53.040;8.850;2023-07-13T02:38:53;19.00;;;12.77;;
32333;SDS011;18810;53.040;8.850;2023-07-13T02:41:19;17.60;;;11.82;;
32333;SDS011;18810;53.040;8.850;2023-07-13T02:43:45;21.02;;;11.77;;
32333;SDS011;18810;53.040;8.850;2023-07-13T02:46:10;21.60;;;13.00;;
32333;SDS011;18810;53.040;8.850;2023-07-13T02:48:37;14.52;;;10.52;;
32333;SDS011;18810;53.040;8.850;2023-07-13T02:51:04;22.15;;;12.85;;
32333;SDS011;18810;53.040;8.850;2023-07-13T02:53:30;25.35;;;11.70;;
32333;SDS011;18810;53.040;8.850;2023-07-13T02:55:56;15.57;;;10.60;;
32333;SDS011;18810;53.040;8.850;2023-07-13T02:58:21;16.80;;;9.82;;
32333;SDS011;18810;53.040;8.850;2023-07-13T03:00:47;16.88;;;10.45;;
32333;SDS011;18810;53.040;8.850;2023-07-13T03:03:15;16.10;;;9.90;;
32333;SDS011;18810;53.040;8.850;2023-07-13T03:05:42;15.18;;;9.70;;
32333;SDS011;18810;53.040;8.850;2023-07-13T03:08:09;16.15;;;9.48;;
32333;SDS011;18810;53.040;8.850;2023-07-13T03:10:36;19.23;;;10.30;;
32333;SDS011;18810;53.040;8.850;2023-07-13T03:13:02;17.52;;;9.93;;
32333;SDS011;18810;53.040;8.850;2023-07-13T03:15:28;17.10;;;9.25;;
32333;SDS011;18810;53.040;8.850;2023-07-13T03:17:54;15.63;;;8.55;;
32333;SDS011;18810;53.040;8.850;2023-07-13T03:20:19;16.17;;;8.52;;
32333;SDS011;18810;53.040;8.850;2023-07-13T03:22:45;14.68;;;7.60;;
32333;SDS011;18810;53.040;8.850;2023-07-13T03:25:12;16.00;;;8.43;;
32333;SDS011;18810;53.040;8.850;2023-07-13T03:27:38;16.73;;;7.32;;
32333;SDS011;18810;53.040;8.850;2023-07-13T03:30:04;18.65;;;7.60;;
32333;SDS011;18810;53.040;8.850;2023-07-13T03:32:30;16.38;;;7.60;;
32333;SDS011;18810;53.040;8.850;2023-07-13T03:34:56;13.77;;;6.97;;
32333;SDS011;18810;53.040;8.850;2023-07-13T03:37:22;15.27;;;7.65;;
32333;SDS011;18810;53.040;8.850;2023-07-13T03:39:47;12.23;;;6.20;;
32333;SDS011;18810;53.040;8.850;2023-07-13T03:42:13;13.88;;;6.22;;
32333;SDS011;18810;53.040;8.850;2023-07-13T03:44:40;15.52;;;6.00;;
32333;SDS011;18810;53.040;8.850;2023-07-13T03:47:06;12.50;;;6.00;;
32333;SDS011;18810;53.040;8.850;2023-07-13T03:49:34;16.02;;;5.72;;
32333;SDS011;18810;53.040;8.850;2023-07-13T03:52:00;13.82;;;6.28;;
32333;SDS011;18810;53.040;8.850;2023-07-13T03:54:26;20.45;;;5.55;;
32333;SDS011;18810;53.040;8.850;2023-07-13T03:56:52;11.43;;;5.22;;
32333;SDS011;18810;53.040;8.850;2023-07-13T03:59:17;10.88;;;5.15;;
32333;SDS011;18810;53.040;8.850;2023-07-13T04:01:43;16.33;;;5.20;;
32333;SDS011;18810;53.040;8.850;2023-07-13T04:04:09;15.05;;;5.50;;
32333;SDS011;18810;53.040;8.850;2023-07-13T04:06:35;17.58;;;5.95;;
32333;SDS011;18810;53.040;8.850;2023-07-13T04:09:01;13.05;;;5.13;;
32333;SDS011;18810;53.040;8.850;2023-07-13T04:11:32;13.00;;;5.22;;
32333;SDS011;18810;53.040;8.850;2023-07-13T04:13:58;15.00;;;5.22;;
32333;SDS011;18810;53.040;8.850;2023-07-13T04:16:24;11.60;;;4.75;;
32333;SDS011;18810;53.040;8.850;2023-07-13T04:18:50;16.73;;;4.88;;
32333;SDS011;18810;53.040;8.850;2023-07-13T04:21:20;11.80;;;4.70;;
32333;SDS011;18810;53.040;8.850;2023-07-13T04:23:46;13.65;;;5.07;;
32333;SDS011;18810;53.040;8.850;2023-07-13T04:26:12;15.38;;;4.93;;
32333;SDS011;18810;53.040;8.850;2023-07-13T04:28:38;14.00;;;5.35;;
32333;SDS011;18810;53.040;8.850;2023-07-13T04:31:03;12.13;;;4.65;;
32333;SDS011;18810;53.040;8.850;2023-07-13T04:33:29;16.83;;;4.50;;
32333;SDS011;18810;53.040;8.850;2023-07-13T04:35:55;15.60;;;5.75;;
32333;SDS011;18810;53.040;8.850;2023-07-13T04:38:23;13.20;;;4.60;;
32333;SDS011;18810;53.040;8.850;2023-07-13T04:40:49;14.40;;;5.43;;
32333;SDS011;18810;53.040;8.850;2023-07-13T04:43:16;13.10;;;5.00;;
32333;SDS011;18810;53.040;8.850;2023-07-13T04:45:42;15.32;;;4.88;;
32333;SDS011;18810;53.040;8.850;2023-07-13T04:48:08;9.55;;;4.53;;
32333;SDS011;18810;53.040;8.850;2023-07-13T04:50:36;15.77;;;5.45;;
32333;SDS011;18810;53.040;8.850;2023-07-13T04:53:02;8.05;;;4.30;;
32333;SDS011;18810;53.040;8.850;2023-07-13T04:55:29;9.77;;;4.35;;
32333;SDS011;18810;53.040;8.850;2023-07-13T04:57:55;13.18;;;5.05;;
32333;SDS011;18810;53.040;8.850;2023-07-13T05:00:23;13.20;;;4.90;;
32333;SDS011;18810;53.040;8.850;2023-07-13T05:02:50;15.07;;;5.07;;
32333;SDS011;18810;53.040;8.850;2023-07-13T05:05:17;16.52;;;5.13;;
32333;SDS011;18810;53.040;8.850;2023-07-13T05:07:42;16.65;;;4.63;;
32333;SDS011;18810;53.040;8.850;2023-07-13T05:10:08;13.82;;;4.68;;
32333;SDS011;18810;53.040;8.850;2023-07-13T05:12:34;15.63;;;5.00;;
32333;SDS011;18810;53.040;8.850;2023-07-13T05:15:01;13.65;;;4.97;;
32333;SDS011;18810;53.040;8.850;2023-07-13T05:17:27;13.52;;;4.63;;
32333;SDS011;18810;53.040;8.850;2023-07-13T05:19:52;16.30;;;4.88;;
32333;SDS011;18810;53.040;8.850;2023-07-13T05:22:18;11.55;;;4.50;;
32333;SDS011;18810;53.040;8.850;2023-07-13T05:24:44;18.77;;;5.80;;
32333;SDS011;18810;53.040;8.850;2023-07-13T05:27:09;12.70;;;4.18;;
32333;SDS011;18810;53.040;8.850;2023-07-13T05:29:36;11.60;;;4.50;;
32333;SDS011;18810;53.040;8.850;2023-07-13T05:32:01;11.40;;;4.68;;
32333;SDS011;18810;53.040;8.850;2023-07-13T05:34:28;15.85;;;4.90;;
32333;SDS011;18810;53.040;8.850;2023-07-13T05:36:54;11.32;;;4.75;;
32333;SDS011;18810;53.040;8.850;2023-07-13T05:39:20;15.80;;;5.20;;
32333;SDS011;18810;53.040;8.850;2023-07-13T05:41:46;12.60;;;4.88;;
32333;SDS011;18810;53.040;8.850;2023-07-13T05:44:11;15.95;;;5.05;;
32333;SDS011;18810;53.040;8.850;2023-07-13T05:46:37;16.42;;;5.60;;
32333;SDS011;18810;53.040;8.850;2023-07-13T05:49:03;18.45;;;6.25;;
32333;SDS011;18810;53.040;8.850;2023-07-13T05:51:29;14.60;;;5.22;;
32333;SDS011;18810;53.040;8.850;2023-07-13T05:53:55;16.45;;;5.68;;
32333;SDS011;18810;53.040;8.850;2023-07-13T05:56:20;17.95;;;6.43;;
32333;SDS011;18810;53.040;8.850;2023-07-13T05:58:47;12.93;;;5.03;;
32333;SDS011;18810;53.040;8.850;2023-07-13T06:01:14;17.85;;;5.40;;
32333;SDS011;18810;53.040;8.850;2023-07-13T06:03:40;13.15;;;5.22;;
32333;SDS011;18810;53.040;8.850;2023-07-13T06:06:07;14.60;;;5.40;;
32333;SDS011;18810;53.040;8.850;2023-07-13T06:08:35;11.35;;;5.50;;
32333;SDS011;18810;53.040;8.850;2023-07-13T06:11:02;14.38;;;5.53;;
32333;SDS011;18810;53.040;8.850;2023-07-13T06:13:28;12.52;;;5.25;;
32333;SDS011;18810;53.040;8.850;2023-07-13T06:15:54;14.15;;;5.63;;
32333;SDS011;18810;53.040;8.850;2023-07-13T06:18:20;17.35;;;6.15;;
32333;SDS011;18810;53.040;8.850;2023-07-13T06:20:45;14.38;;;5.80;;
32333;SDS011;18810;53.040;8.850;2023-07-13T06:23:11;14.48;;;5.40;;
32333;SDS011;18810;53.040;8.850;2023-07-13T06:25:37;15.50;;;5.55;;
32333;SDS011;18810;53.040;8.850;2023-07-13T06:28:02;13.80;;;5.28;;
32333;SDS011;18810;53.040;8.850;2023-07-13T06:30:28;13.43;;;5.70;;
32333;SDS011;18810;53.040;8.850;2023-07-13T06:32:54;12.25;;;5.18;;
32333;SDS011;18810;53.040;8.850;2023-07-13T06:35:20;14.68;;;5.35;;
32333;SDS011;18810;53.040;8.850;2023-07-13T06:37:45;13.55;;;4.88;;
32333;SDS011;18810;53.040;8.850;2023-07-13T06:40:12;12.88;;;5.30;;
32333;SDS011;18810;53.040;8.850;2023-07-13T06:42:38;13.15;;;5.20;;
32333;SDS011;18810;53.040;8.850;2023-07-13T06:45:03;10.57;;;5.07;;
32333;SDS011;18810;53.040;8.850;2023-07-13T06:47:30;15.23;;;5.15;;
32333;SDS011;18810;53.040;8.850;2023-07-13T06:49:55;9.98;;;4.20;;
32333;SDS011;18810;53.040;8.850;2023-07-13T06:52:21;12.02;;;4.57;;
32333;SDS011;18810;53.040;8.850;2023-07-13T06:54:47;13.30;;;4.68;;
32333;SDS011;18810;53.040;8.850;2023-07-13T06:57:12;11.82;;;5.15;;
32333;SDS011;18810;53.040;8.850;2023-07-13T06:59:38;13.15;;;4.40;;
32333;SDS011;18810;53.040;8.850;2023-07-13T07:02:04;14.30;;;4.82;;
32333;SDS011;18810;53.040;8.850;2023-07-13T07:04:30;14.43;;;4.97;;
32333;SDS011;18810;53.040;8.850;2023-07-13T07:06:56;11.05;;;4.55;;
32333;SDS011;18810;53.040;8.850;2023-07-13T07:09:21;16.27;;;4.47;;
32333;SDS011;18810;53.040;8.850;2023-07-13T07:11:47;13.60;;;5.38;;
32333;SDS011;18810;53.040;8.850;2023-07-13T07:14:13;13.27;;;4.68;;
32333;SDS011;18810;53.040;8.850;2023-07-13T07:16:38;18.50;;;5.13;;
32333;SDS011;18810;53.040;8.850;2023-07-13T07:19:04;10.38;;;4.53;;
32333;SDS011;18810;53.040;8.850;2023-07-13T07:21:30;11.65;;;4.65;;
32333;SDS011;18810;53.040;8.850;2023-07-13T07:23:56;12.23;;;4.57;;
32333;SDS011;18810;53.040;8.850;2023-07-13T07:26:22;9.98;;;4.47;;
32333;SDS011;18810;53.040;8.850;2023-07-13T07:28:48;11.73;;;4.18;;
32333;SDS011;18810;53.040;8.850;2023-07-13T07:31:13;12.73;;;4.50;;
32333;SDS011;18810;53.040;8.850;2023-07-13T07:33:39;14.80;;;5.18;;
32333;SDS011;18810;53.040;8.850;2023-07-13T07:36:05;18.38;;;5.43;;
32333;SDS011;18810;53.040;8.850;2023-07-13T07:38:31;8.43;;;4.03;;
32333;SDS011;18810;53.040;8.850;2023-07-13T07:40:56;8.75;;;4.50;;
32333;SDS011;18810;53.040;8.850;2023-07-13T07:43:22;15.75;;;5.03;;
32333;SDS011;18810;53.040;8.850;2023-07-13T07:45:48;11.15;;;4.35;;
32333;SDS011;18810;53.040;8.850;2023-07-13T07:48:14;9.57;;;4.43;;
32333;SDS011;18810;53.040;8.850;2023-07-13T07:50:40;12.77;;;4.63;;
32333;SDS011;18810;53.040;8.850;2023-07-13T07:53:06;10.75;;;4.60;;
32333;SDS011;18810;53.040;8.850;2023-07-13T07:55:33;12.80;;;4.82;;
32333;SDS011;18810;53.040;8.850;2023-07-13T07:58:02;14.48;;;4.80;;
32333;SDS011;18810;53.040;8.850;2023-07-13T08:00:28;9.30;;;4.07;;
32333;SDS011;18810;53.040;8.850;2023-07-13T08:02:56;15.45;;;4.22;;
32333;SDS011;18810;53.040;8.850;2023-07-13T08:05:22;11.40;;;4.88;;
32333;SDS011;18810;53.040;8.850;2023-07-13T08:07:48;9.23;;;4.47;;
32333;SDS011;18810;53.040;8.850;2023-07-13T08:10:14;12.25;;;4.60;;
32333;SDS011;18810;53.040;8.850;2023-07-13T08:12:40;14.25;;;4.75;;
32333;SDS011;18810;53.040;8.850;2023-07-13T08:15:07;12.82;;;4.43;;
32333;SDS011;18810;53.040;8.850;2023-07-13T08:17:36;7.28;;;4.10;;
32333;SDS011;18810;53.040;8.850;2023-07-13T08:20:02;9.00;;;4.22;;
32333;SDS011;18810;53.040;8.850;2023-07-13T08:22:28;8.75;;;4.47;;
32333;SDS011;18810;53.040;8.850;2023-07-13T08:24:53;8.82;;;3.92;;
32333;SDS011;18810;53.040;8.850;2023-07-13T08:27:22;11.73;;;4.30;;
32333;SDS011;18810;53.040;8.850;2023-07-13T08:29:49;12.70;;;4.60;;
32333;SDS011;18810;53.040;8.850;2023-07-13T08:32:15;8.70;;;3.75;;
32333;SDS011;18810;53.040;8.850;2023-07-13T08:34:43;10.50;;;4.65;;
32333;SDS011;18810;53.040;8.850;2023-07-13T08:37:08;12.07;;;4.03;;
32333;SDS011;18810;53.040;8.850;2023-07-13T08:39:34;11.23;;;4.55;;
32333;SDS011;18810;53.040;8.850;2023-07-13T08:42:16;11.05;;;4.30;;
32333;SDS011;18810;53.040;8.850;2023-07-13T08:47:30;10.10;;;3.90;;
32333;SDS011;18810;53.040;8.850;2023-07-13T08:49:59;10.32;;;4.90;;
32333;SDS011;18810;53.040;8.850;2023-07-13T08:52:36;8.18;;;4.10;;
32333;SDS011;18810;53.040;8.850;2023-07-13T08:55:09;10.75;;;4.55;;
32333;SDS011;18810;53.040;8.850;2023-07-13T08:57:46;8.65;;;4.25;;
32333;SDS011;18810;53.040;8.850;2023-07-13T09:00:18;8.93;;;3.70;;
32333;SDS011;18810;53.040;8.850;2023-07-13T09:02:56;10.52;;;3.50;;
32333;SDS011;18810;53.040;8.850;2023-07-13T09:05:28;5.43;;;3.35;;
32333;SDS011;18810;53.040;8.850;2023-07-13T09:14:06;10.18;;;4.63;;
32333;SDS011;18810;53.040;8.850;2023-07-13T09:16:39;9.23;;;3.85;;
32333;SDS011;18810;53.040;8.850;2023-07-13T09:19:06;8.73;;;4.05;;
32333;SDS011;18810;53.040;8.850;2023-07-13T09:21:37;6.37;;;3.60;;
32333;SDS011;18810;53.040;8.850;2023-07-13T09:26:55;5.43;;;3.63;;
32333;SDS011;18810;53.040;8.850;2023-07-13T09:29:27;6.18;;;3.63;;
32333;SDS011;18810;53.040;8.850;2023-07-13T09:31:55;6.97;;;3.10;;
32333;SDS011;18810;53.040;8.850;2023-07-13T09:34:24;7.18;;;3.50;;
32333;SDS011;18810;53.040;8.850;2023-07-13T09:36:50;6.00;;;3.75;;
32333;SDS011;18810;53.040;8.850;2023-07-13T09:42:00;6.97;;;3.58;;
32333;SDS011;18810;53.040;8.850;2023-07-13T09:44:36;6.03;;;3.10;;
32333;SDS011;18810;53.040;8.850;2023-07-13T09:47:18;7.90;;;3.65;;
32333;SDS011;18810;53.040;8.850;2023-07-13T09:49:48;7.75;;;3.45;;
32333;SDS011;18810;53.040;8.850;2023-07-13T09:52:23;6.47;;;3.10;;
32333;SDS011;18810;53.040;8.850;2023-07-13T09:54:51;7.22;;;3.42;;
32333;SDS011;18810;53.040;8.850;2023-07-13T09:57:24;7.00;;;2.92;;
32333;SDS011;18810;53.040;8.850;2023-07-13T09:59:53;5.60;;;3.25;;
32333;SDS011;18810;53.040;8.850;2023-07-13T10:05:00;10.40;;;3.42;;
32333;SDS011;18810;53.040;8.850;2023-07-13T10:07:31;4.43;;;2.90;;
32333;SDS011;18810;53.040;8.850;2023-07-13T10:10:02;5.38;;;3.33;;
32333;SDS011;18810;53.040;8.850;2023-07-13T10:12:29;7.10;;;3.28;;
32333;SDS011;18810;53.040;8.850;2023-07-13T10:15:00;7.00;;;3.50;;
32333;SDS011;18810;53.040;8.850;2023-07-13T10:17:31;5.68;;;3.08;;
32333;SDS011;18810;53.040;8.850;2023-07-13T10:20:04;6.32;;;2.80;;
32333;SDS011;18810;53.040;8.850;2023-07-13T10:25:17;4.68;;;3.03;;
32333;SDS011;18810;53.040;8.850;2023-07-13T10:27:45;6.40;;;3.13;;
32333;SDS011;18810;53.040;8.850;2023-07-13T10:30:20;7.18;;;3.72;;
32333;SDS011;18810;53.040;8.850;2023-07-13T10:32:53;5.28;;;2.92;;
32333;SDS011;18810;53.040;8.850;2023-07-13T10:35:20;7.82;;;3.13;;
32333;SDS011;18810;53.040;8.850;2023-07-13T10:37:52;6.97;;;3.00;;
32333;SDS011;18810;53.040;8.850;2023-07-13T10:43:25;5.50;;;2.80;;
32333;SDS011;18810;53.040;8.850;2023-07-13T10:46:03;6.28;;;3.05;;
32333;SDS011;18810;53.040;8.850;2023-07-13T10:48:40;5.05;;;3.42;;
32333;SDS011;18810;53.040;8.850;2023-07-13T10:51:07;6.28;;;3.15;;
32333;SDS011;18810;53.040;8.850;2023-07-13T10:53:36;5.13;;;2.40;;
32333;SDS011;18810;53.040;8.850;2023-07-13T10:59:28;3.38;;;2.05;;
32333;SDS011;18810;53.040;8.850;2023-07-13T11:01:55;4.65;;;2.30;;
32333;SDS011;18810;53.040;8.850;2023-07-13T11:04:31;4.13;;;2.20;;
32333;SDS011;18810;53.040;8.850;2023-07-13T11:07:11;3.38;;;2.55;;
32333;SDS011;18810;53.040;8.850;2023-07-13T11:09:51;3.17;;;2.83;;
32333;SDS011;18810;53.040;8.850;2023-07-13T11:22:48;11.52;;;7.20;;
32333;SDS011;18810;53.040;8.850;2023-07-13T11:27:52;12.00;;;8.50;;
32333;SDS011;18810;53.040;8.850;2023-07-13T11:38:40;11.45;;;8.82;;
32333;SDS011;18810;53.040;8.850;2023-07-13T11:41:17;8.40;;;7.28;;
32333;SDS011;18810;53.040;8.850;2023-07-13T11:43:50;9.18;;;5.15;;
32333;SDS011;18810;53.040;8.850;2023-07-13T11:46:20;6.20;;;4.50;;
32333;SDS011;18810;53.040;8.850;2023-07-13T11:48:51;7.85;;;3.95;;
32333;SDS011;18810;53.040;8.850;2023-07-13T11:51:22;5.35;;;3.25;;
32333;SDS011;18810;53.040;8.850;2023-07-13T11:53:53;3.80;;;3.03;;
32333;SDS011;18810;53.040;8.850;2023-07-13T11:56:22;6.13;;;2.80;;
32333;SDS011;18810;53.040;8.850;2023-07-13T11:58:53;4.35;;;2.53;;
32333;SDS011;18810;53.040;8.850;2023-07-13T12:01:24;2.38;;;2.10;;
32333;SDS011;18810;53.040;8.850;2023-07-13T12:03:58;3.55;;;2.25;;
32333;SDS011;18810;53.040;8.850;2023-07-13T12:06:35;3.08;;;2.30;;
32333;SDS011;18810;53.040;8.850;2023-07-13T12:09:10;4.90;;;2.60;;
32333;SDS011;18810;53.040;8.850;2023-07-13T12:11:41;6.85;;;3.22;;
32333;SDS011;18810;53.040;8.850;2023-07-13T12:14:14;7.18;;;2.88;;
32333;SDS011;18810;53.040;8.850;2023-07-13T12:16:41;5.80;;;2.60;;
32333;SDS011;18810;53.040;8.850;2023-07-13T12:19:14;6.47;;;2.80;;
32333;SDS011;18810;53.040;8.850;2023-07-13T12:21:46;5.63;;;3.10;;
32333;SDS011;18810;53.040;8.850;2023-07-13T12:24:14;2.88;;;2.58;;
32333;SDS011;18810;53.040;8.850;2023-07-13T12:26:41;3.85;;;2.70;;
32333;SDS011;18810;53.040;8.850;2023-07-13T12:29:07;3.60;;;2.70;;
32333;SDS011;18810;53.040;8.850;2023-07-13T12:34:07;2.88;;;2.40;;
32333;SDS011;18810;53.040;8.850;2023-07-13T12:36:37;3.75;;;2.33;;
32333;SDS011;18810;53.040;8.850;2023-07-13T12:44:49;4.20;;;2.78;;
32333;SDS011;18810;53.040;8.850;2023-07-13T12:47:15;3.10;;;2.40;;
32333;SDS011;18810;53.040;8.850;2023-07-13T12:49:42;4.78;;;2.20;;
32333;SDS011;18810;53.040;8.850;2023-07-13T12:52:15;3.17;;;2.30;;
32333;SDS011;18810;53.040;8.850;2023-07-13T12:54:55;2.80;;;2.20;;
32333;SDS011;18810;53.040;8.850;2023-07-13T12:57:23;3.05;;;2.15;;
32333;SDS011;18810;53.040;8.850;2023-07-13T12:59:51;3.92;;;1.92;;
32333;SDS011;18810;53.040;8.850;2023-07-13T13:04:48;1.60;;;1.50;;
32333;SDS011;18810;53.040;8.850;2023-07-13T13:07:14;2.33;;;1.83;;
32333;SDS011;18810;53.040;8.850;2023-07-13T13:09:40;3.33;;;1.75;;
32333;SDS011;18810;53.040;8.850;2023-07-13T13:12:05;4.25;;;2.28;;
32333;SDS011;18810;53.040;8.850;2023-07-13T13:14:32;1.67;;;1.58;;
32333;SDS011;18810;53.040;8.850;2023-07-13T13:16:57;2.33;;;1.60;;
32333;SDS011;18810;53.040;8.850;2023-07-13T13:19:25;2.70;;;1.85;;
32333;SDS011;18810;53.040;8.850;2023-07-13T13:21:53;3.13;;;1.77;;
32333;SDS011;18810;53.040;8.850;2023-07-13T13:24:22;2.13;;;1.55;;
32333;SDS011;18810;53.040;8.850;2023-07-13T13:26:49;1.42;;;1.33;;
32333;SDS011;18810;53.040;8.850;2023-07-13T13:29:18;1.80;;;1.30;;
32333;SDS011;18810;53.040;8.850;2023-07-13T13:31:49;1.65;;;1.40;;
32333;SDS011;18810;53.040;8.850;2023-07-13T13:34:19;2.53;;;1.50;;
32333;SDS011;18810;53.040;8.850;2023-07-13T13:36:47;1.55;;;1.10;;
32333;SDS011;18810;53.040;8.850;2023-07-13T13:41:48;2.55;;;1.40;;
32333;SDS011;18810;53.040;8.850;2023-07-13T13:44:18;1.35;;;1.15;;
32333;SDS011;18810;53.040;8.850;2023-07-13T13:46:45;3.58;;;1.40;;
32333;SDS011;18810;53.040;8.850;2023-07-13T13:49:14;1.85;;;1.40;;
32333;SDS011;18810;53.040;8.850;2023-07-13T13:51:42;1.33;;;1.10;;
32333;SDS011;18810;53.040;8.850;2023-07-13T13:54:15;1.73;;;1.30;;
32333;SDS011;18810;53.040;8.850;2023-07-13T13:56:46;2.17;;;1.40;;
32333;SDS011;18810;53.040;8.850;2023-07-13T13:59:15;1.67;;;1.50;;
32333;SDS011;18810;53.040;8.850;2023-07-13T14:01:44;3.42;;;1.77;;
32333;SDS011;18810;53.040;8.850;2023-07-13T14:04:17;2.40;;;1.75;;
32333;SDS011;18810;53.040;8.850;2023-07-13T14:06:45;2.20;;;1.83;;
32333;SDS011;18810;53.040;8.850;2023-07-13T14:09:11;3.47;;;1.90;;
32333;SDS011;18810;53.040;8.850;2023-07-13T14:11:40;3.28;;;1.85;;
32333;SDS011;18810;53.040;8.850;2023-07-13T14:14:17;2.67;;;1.90;;
32333;SDS011;18810;53.040;8.850;2023-07-13T14:16:47;3.33;;;2.10;;
32333;SDS011;18810;53.040;8.850;2023-07-13T14:19:18;3.22;;;2.10;;
32333;SDS011;18810;53.040;8.850;2023-07-13T14:21:45;3.55;;;2.47;;
32333;SDS011;18810;53.040;8.850;2023-07-13T14:24:12;2.40;;;1.80;;
32333;SDS011;18810;53.040;8.850;2023-07-13T14:26:39;4.30;;;2.35;;
32333;SDS011;18810;53.040;8.850;2023-07-13T14:29:15;3.45;;;2.60;;
32333;SDS011;18810;53.040;8.850;2023-07-13T14:31:43;3.33;;;2.72;;
32333;SDS011;18810;53.040;8.850;2023-07-13T14:34:12;4.05;;;2.70;;
32333;SDS011;18810;53.040;8.850;2023-07-13T14:36:43;4.55;;;3.20;;
32333;SDS011;18810;53.040;8.850;2023-07-13T14:39:11;5.85;;;2.97;;
32333;SDS011;18810;53.040;8.850;2023-07-13T14:41:39;5.07;;;3.28;;
32333;SDS011;18810;53.040;8.850;2023-07-13T14:44:12;4.18;;;3.20;;
32333;SDS011;18810;53.040;8.850;2023-07-13T14:46:38;4.82;;;2.80;;
32333;SDS011;18810;53.040;8.850;2023-07-13T14:49:06;5.03;;;3.33;;
32333;SDS011;18810;53.040;8.850;2023-07-13T14:51:35;4.20;;;2.78;;
32333;SDS011;18810;53.040;8.850;2023-07-13T14:54:05;4.57;;;3.35;;
32333;SDS011;18810;53.040;8.850;2023-07-13T14:56:33;3.42;;;3.08;;
32333;SDS011;18810;53.040;8.850;2023-07-13T14:58:59;4.60;;;3.20;;
32333;SDS011;18810;53.040;8.850;2023-07-13T15:01:25;4.80;;;3.10;;
32333;SDS011;18810;53.040;8.850;2023-07-13T15:03:52;3.60;;;2.15;;
32333;SDS011;18810;53.040;8.850;2023-07-13T15:06:18;3.13;;;2.30;;
32333;SDS011;18810;53.040;8.850;2023-07-13T15:08:44;2.67;;;2.22;;
32333;SDS011;18810;53.040;8.850;2023-07-13T15:11:12;3.03;;;2.08;;
32333;SDS011;18810;53.040;8.850;2023-07-13T15:13:39;3.08;;;2.42;;
32333;SDS011;18810;53.040;8.850;2023-07-13T15:16:16;3.85;;;2.30;;
32333;SDS011;18810;53.040;8.850;2023-07-13T15:18:44;3.72;;;2.33;;
32333;SDS011;18810;53.040;8.850;2023-07-13T15:21:11;3.65;;;2.20;;
32333;SDS011;18810;53.040;8.850;2023-07-13T15:23:40;2.45;;;2.25;;
32333;SDS011;18810;53.040;8.850;2023-07-13T15:26:08;2.50;;;1.50;;
32333;SDS011;18810;53.040;8.850;2023-07-13T15:28:38;1.75;;;1.65;;
32333;SDS011;18810;53.040;8.850;2023-07-13T15:31:11;2.25;;;1.52;;
32333;SDS011;18810;53.040;8.850;2023-07-13T15:33:45;1.45;;;1.00;;
32333;SDS011;18810;53.040;8.850;2023-07-13T15:36:13;1.13;;;0.93;;
32333;SDS011;18810;53.040;8.850;2023-07-13T15:38:40;1.02;;;0.90;;
32333;SDS011;18810;53.040;8.850;2023-07-13T15:41:25;1.90;;;0.88;;
32333;SDS011;18810;53.040;8.850;2023-07-13T15:43:53;1.10;;;1.00;;
32333;SDS011;18810;53.040;8.850;2023-07-13T15:46:27;5.28;;;1.00;;